Météo ( Metar ) des aéroports voisins de france et espagne.

 

LFBZ - Biarritz, Pays basque
Nouvelle Aquitaine - France
Distance direct 32 km Sud
Mise à jour: 06/02/2023 16:30
Few Clouds
Few Clouds
 Wind from E
Vent: E 11 km/h
Température: 10°C
Wind Chill: 8°C
Point de rosée: 2°C
Humidité: 58%
Baromètre: 1030 hPa
Clouds: Few Clouds
Visibility: 10 km
Cloud details: Few Clouds 1158 m
2023/02/06 15:30 LFBZ 061530Z AUTO 09006KT 060V140 9999 FEW038 10/02 Q1030 NOSIG
LFBY - Dax Seyresse,
Nouvelle Aquitaine - France
Distance direct 29 km Est
Mise à jour: 06/02/2023 16:30

 Wind from NE
Vent: NE 9 km/h
Température: 11°C
Point de rosée: 0°C
Humidité: 47%
Baromètre: 1029 hPa
Visibility: 10 km
2023/02/06 15:30 LFBY 061530Z AUTO 05005KT 350V100 9999 // ////// 11/M00 Q1029
 
LFBD - Bordeaux Mérignac,
Nouvelle Aquitaine - France
Distance direct 156 km Nord
Mise à jour: 06/02/2023 16:30
Few Clouds
Few Clouds
 Wind from NE
Vent: NE 15 km/h
Température: 11°C
Point de rosée: 1°C
Humidité: 50%
Baromètre: 1031 hPa
Clouds: Few Clouds
Visibility: 10 km
Cloud details: Few Clouds 1219 m
2023/02/06 15:30 LFBD 061530Z AUTO 04008KT 9999 FEW040 11/01 Q1031 NOSIG
LFBP - Pau Pyrennées atlantiques,
Nouvelle Aquitaine - France
Distance direct 120 km SSE
Mise à jour: 06/02/2023 16:30
clair
clair
 Wind from NE
Vent: NE 9 km/h
Température: 10°C
Wind Chill: 9°C
Point de rosée: 0°C
Humidité: 50%
Baromètre: 1029 hPa
Résumé: clair
Visibility: greater than 10 km
2023/02/06 15:30 LFBP 061530Z AUTO 05005KT 320V110 CAVOK 10/00 Q1029 NOSIG
 
LFBA - Agen La Garenne,
Lot et Garonne - France
Distance direct 210 km ENE
Mise à jour: 06/02/2023 16:30
clair
clair
 Wind from N
Vent: N 6 km/h
Température: 12°C
Point de rosée: 0°C
Humidité: 44%
Baromètre: 1029 hPa
Résumé: clair
Visibility: greater than 10 km
2023/02/06 15:30 LFBA 061530Z AUTO 01003KT 320V100 CAVOK 12/00 Q1029 NOSIG
LFBT - Tarbes Lourdes,
Hautes Pyrennées - France
Distance direct 150 km ESE
Mise à jour: 06/02/2023 16:30
Few Clouds
Few Clouds
 Wind from N
Vent: N 13 km/h
Température: 9°C
Wind Chill: 7°C
Point de rosée: 0°C
Humidité: 54%
Baromètre: 1028 hPa
Clouds: Few Clouds
Visibility: 10 km
Cloud details: Few Clouds 1402 m
2023/02/06 15:30 LFBT 061530Z AUTO 01007KT 350V050 9999 FEW046 09/M00 Q1028 NOSIG
 
LFBO - Toulouse Blagnac,
Haute Garonne,- France
Distance direct 250 km EST
Mise à jour: 06/02/2023 16:30
Few Clouds
Few Clouds
 Wind from varies
Vent: varies 6 km/h
Température: 11°C
Point de rosée: 0°C
Humidité: 47%
Baromètre: 1029 hPa
Clouds: Few Clouds
Visibility: 10 km
Cloud details: Few Clouds 1494 m
2023/02/06 15:30 LFBO 061530Z AUTO VRB03KT 9999 FEW049 11/M00 Q1029 NOSIG
LFBE - Bergerac, Dordogne,
Nouvelle Aquitaine - France
Distance direct 240 km EST
Mise à jour: 06/02/2023 16:30
clair
clair
 Wind from NNE
Vent: NNE 7 km/h
Température: 12°C
Point de rosée: 0°C
Humidité: 44%
Baromètre: 1030 hPa
Résumé: clair
Visibility: greater than 10 km
2023/02/06 15:30 LFBE 061530Z AUTO 02004KT 340V100 CAVOK 12/M00 Q1030 NOSIG
 
LESO - Saint Sebastien,
Pays basque/ESPANA
Distance direct 94 km ESE
Mise à jour: 06/02/2023 16:30
partiellement nuageux
partiellement nuageux
 Wind from NE
Vent: NE 7 km/h
Température: 9°C
Wind Chill: 8°C
Point de rosée: 2°C
Humidité: 62%
Baromètre: 1030 hPa
Clouds: partiellement nuageux
Visibility: 10 km
Cloud details: partiellement nuageux 1067 m
2023/02/06 15:30 LESO 061530Z 04004KT 330V110 9999 SCT035 09/02 Q1030
LEBB - Bilbao,,
Vizcaya/ESPANA
Distance direct 180 km ESE
Mise à jour: 06/02/2023 16:30
Few Clouds
Few Clouds
 Wind from NNE
Vent: NNE 9 km/h
Température: 10°C
Wind Chill: 9°C
Point de rosée: 1°C
Humidité: 54%
Baromètre: 1030 hPa
Clouds: Few Clouds
Visibility: 10 km
Cloud details: Few Clouds 1189 m
2023/02/06 15:30 LEBB 061530Z 03005KT 350V070 9999 FEW039 10/01 Q1030 NOSIG
 
LEVT - Vitoria-Gasteiz,
Pays basque/ESPANA
Distance direct 190 km OSO
Mise à jour: 06/02/2023 16:30
Few Clouds
Few Clouds
 Wind from N
Vent: N 19 km/h
Température: 7°C
Wind Chill: 4°C
Point de rosée: -1°C
Humidité: 57%
Baromètre: 1027 hPa
Clouds: Few Clouds
Visibility: 10 km
Cloud details: Few Clouds 914 m
2023/02/06 15:30 LEVT 061530Z 01010KT 340V050 9999 FEW030 07/M01 Q1027
LEPP - Pamplona,
Pays basque/ESPANA
Distance direct 142 km SUD
Mise à jour: 06/02/2023 16:30
clair
clair
 Wind from NO
Vent: NO 17 km/h
Température: 9°C
Wind Chill: 7°C
Point de rosée: -2°C
Humidité: 46%
Baromètre: 1027 hPa
Résumé: clair
Visibility: greater than 10 km
2023/02/06 15:30 LEPP 061530Z 32009KT 290V350 CAVOK 09/M02 Q1027
 
LELO - Logrono,
Pays basque/ESPANA
Distance direct 122 km SSO
Mise à jour: 06/02/2023 16:30
Few Clouds
Few Clouds
 Wind from S
Vent: S 6 km/h
Température: 11°C
Point de rosée: -3°C
Humidité: 38%
Baromètre: 1027 hPa
Clouds: Few Clouds
Visibility: 10 km
Cloud details: Few Clouds 1067 m
2023/02/06 15:30 LELO 061530Z 17003KT 080V230 9999 FEW035 11/M03 Q1027
LEZG - Saragosse,
Aragon,/ESPANA
Distance direct 302 km SUD
Mise à jour: 06/02/2023 16:30
Few Clouds
Few Clouds
 Wind from ENE
Vent: ENE 4 km/h
Température: 11°C
Point de rosée: 0°C
Humidité: 47%
Baromètre: 1026 hPa
Clouds: Few Clouds
Visibility: 10 km
Cloud details: Few Clouds 1067 m
2023/02/06 15:30 LEZG 061530Z 07002KT 9999 FEW035 11/M00 Q1026